sensor_id;sensor_type;location;lat;lon;timestamp;P1;durP1;ratioP1;P2;durP2;ratioP2
13592;SDS011;6867;50.998;4.250;2022-09-27T00:01:16;2.80;;;1.70;;
13592;SDS011;6867;50.998;4.250;2022-09-27T00:03:43;3.10;;;1.37;;
13592;SDS011;6867;50.998;4.250;2022-09-27T00:06:11;10.53;;;1.70;;
13592;SDS011;6867;50.998;4.250;2022-09-27T00:08:40;2.87;;;1.50;;
13592;SDS011;6867;50.998;4.250;2022-09-27T00:11:10;1.87;;;1.20;;
13592;SDS011;6867;50.998;4.250;2022-09-27T00:13:41;5.23;;;1.40;;
13592;SDS011;6867;50.998;4.250;2022-09-27T00:16:09;5.07;;;1.60;;
13592;SDS011;6867;50.998;4.250;2022-09-27T00:18:36;2.17;;;1.37;;
13592;SDS011;6867;50.998;4.250;2022-09-27T00:21:04;8.30;;;1.30;;
13592;SDS011;6867;50.998;4.250;2022-09-27T00:23:32;2.43;;;1.10;;
13592;SDS011;6867;50.998;4.250;2022-09-27T00:25:58;4.33;;;1.47;;
13592;SDS011;6867;50.998;4.250;2022-09-27T00:28:25;7.80;;;1.67;;
13592;SDS011;6867;50.998;4.250;2022-09-27T00:30:52;4.77;;;1.20;;
13592;SDS011;6867;50.998;4.250;2022-09-27T00:33:21;2.00;;;1.30;;
13592;SDS011;6867;50.998;4.250;2022-09-27T00:35:47;4.47;;;1.13;;
13592;SDS011;6867;50.998;4.250;2022-09-27T00:38:14;5.97;;;1.23;;
13592;SDS011;6867;50.998;4.250;2022-09-27T00:40:41;3.90;;;1.13;;
13592;SDS011;6867;50.998;4.250;2022-09-27T00:43:15;5.43;;;1.33;;
13592;SDS011;6867;50.998;4.250;2022-09-27T00:45:45;2.67;;;1.13;;
13592;SDS011;6867;50.998;4.250;2022-09-27T00:48:15;3.27;;;1.20;;
13592;SDS011;6867;50.998;4.250;2022-09-27T00:50:47;3.97;;;1.20;;
13592;SDS011;6867;50.998;4.250;2022-09-27T00:53:17;2.03;;;1.00;;
13592;SDS011;6867;50.998;4.250;2022-09-27T00:55:48;3.40;;;1.03;;
13592;SDS011;6867;50.998;4.250;2022-09-27T00:58:19;5.00;;;1.30;;
13592;SDS011;6867;50.998;4.250;2022-09-27T01:00:50;3.50;;;1.30;;
13592;SDS011;6867;50.998;4.250;2022-09-27T01:03:21;3.80;;;0.90;;
13592;SDS011;6867;50.998;4.250;2022-09-27T01:05:53;5.40;;;1.20;;
13592;SDS011;6867;50.998;4.250;2022-09-27T01:08:20;2.93;;;1.13;;
13592;SDS011;6867;50.998;4.250;2022-09-27T01:10:50;4.03;;;1.30;;
13592;SDS011;6867;50.998;4.250;2022-09-27T01:13:25;10.57;;;1.30;;
13592;SDS011;6867;50.998;4.250;2022-09-27T01:16:04;5.80;;;1.60;;
13592;SDS011;6867;50.998;4.250;2022-09-27T01:18:40;1.30;;;1.17;;
13592;SDS011;6867;50.998;4.250;2022-09-27T01:21:33;5.90;;;1.23;;
13592;SDS011;6867;50.998;4.250;2022-09-27T01:27:16;7.20;;;1.60;;
13592;SDS011;6867;50.998;4.250;2022-09-27T01:30:10;4.20;;;1.20;;
13592;SDS011;6867;50.998;4.250;2022-09-27T01:32:41;4.00;;;1.30;;
13592;SDS011;6867;50.998;4.250;2022-09-27T01:35:19;2.10;;;1.40;;
13592;SDS011;6867;50.998;4.250;2022-09-27T01:37:50;8.57;;;1.70;;
13592;SDS011;6867;50.998;4.250;2022-09-27T01:40:28;12.27;;;1.67;;
13592;SDS011;6867;50.998;4.250;2022-09-27T01:42:59;6.80;;;1.70;;
13592;SDS011;6867;50.998;4.250;2022-09-27T01:45:33;2.90;;;1.30;;
13592;SDS011;6867;50.998;4.250;2022-09-27T01:48:03;4.73;;;1.33;;
13592;SDS011;6867;50.998;4.250;2022-09-27T01:50:36;4.57;;;1.40;;
13592;SDS011;6867;50.998;4.250;2022-09-27T01:53:06;2.70;;;1.47;;
13592;SDS011;6867;50.998;4.250;2022-09-27T01:55:37;3.07;;;1.30;;
13592;SDS011;6867;50.998;4.250;2022-09-27T01:58:05;3.50;;;1.70;;
13592;SDS011;6867;50.998;4.250;2022-09-27T02:00:39;6.37;;;2.03;;
13592;SDS011;6867;50.998;4.250;2022-09-27T02:03:11;2.50;;;1.17;;
13592;SDS011;6867;50.998;4.250;2022-09-27T02:05:42;1.10;;;0.97;;
13592;SDS011;6867;50.998;4.250;2022-09-27T02:08:14;4.50;;;1.20;;
13592;SDS011;6867;50.998;4.250;2022-09-27T02:10:46;1.57;;;0.97;;
13592;SDS011;6867;50.998;4.250;2022-09-27T02:13:18;4.93;;;1.00;;
13592;SDS011;6867;50.998;4.250;2022-09-27T02:15:51;4.20;;;1.27;;
13592;SDS011;6867;50.998;4.250;2022-09-27T02:18:24;1.93;;;1.10;;
13592;SDS011;6867;50.998;4.250;2022-09-27T02:20:58;3.37;;;1.10;;
13592;SDS011;6867;50.998;4.250;2022-09-27T02:23:32;6.03;;;1.50;;
13592;SDS011;6867;50.998;4.250;2022-09-27T02:26:08;5.40;;;1.53;;
13592;SDS011;6867;50.998;4.250;2022-09-27T02:28:41;3.03;;;1.10;;
13592;SDS011;6867;50.998;4.250;2022-09-27T02:31:14;4.87;;;1.70;;
13592;SDS011;6867;50.998;4.250;2022-09-27T02:33:41;3.40;;;1.17;;
13592;SDS011;6867;50.998;4.250;2022-09-27T02:36:12;1.90;;;1.23;;
13592;SDS011;6867;50.998;4.250;2022-09-27T02:38:39;3.23;;;1.60;;
13592;SDS011;6867;50.998;4.250;2022-09-27T02:41:12;7.17;;;1.40;;
13592;SDS011;6867;50.998;4.250;2022-09-27T02:43:40;2.20;;;1.50;;
13592;SDS011;6867;50.998;4.250;2022-09-27T02:46:16;3.03;;;1.30;;
13592;SDS011;6867;50.998;4.250;2022-09-27T02:48:58;4.50;;;1.63;;
13592;SDS011;6867;50.998;4.250;2022-09-27T02:51:41;8.17;;;1.73;;
13592;SDS011;6867;50.998;4.250;2022-09-27T02:54:17;2.93;;;1.40;;
13592;SDS011;6867;50.998;4.250;2022-09-27T02:56:56;4.50;;;1.40;;
13592;SDS011;6867;50.998;4.250;2022-09-27T02:59:32;5.23;;;1.37;;
13592;SDS011;6867;50.998;4.250;2022-09-27T03:02:07;3.83;;;1.53;;
13592;SDS011;6867;50.998;4.250;2022-09-27T03:04:39;1.97;;;1.13;;
13592;SDS011;6867;50.998;4.250;2022-09-27T03:07:10;7.07;;;1.80;;
13592;SDS011;6867;50.998;4.250;2022-09-27T03:09:40;3.87;;;1.40;;
13592;SDS011;6867;50.998;4.250;2022-09-27T03:12:09;1.97;;;1.33;;
13592;SDS011;6867;50.998;4.250;2022-09-27T03:14:35;3.43;;;1.87;;
13592;SDS011;6867;50.998;4.250;2022-09-27T03:17:02;7.30;;;1.77;;
13592;SDS011;6867;50.998;4.250;2022-09-27T03:19:30;3.43;;;1.27;;
13592;SDS011;6867;50.998;4.250;2022-09-27T03:21:57;2.63;;;1.63;;
13592;SDS011;6867;50.998;4.250;2022-09-27T03:24:23;5.60;;;1.93;;
13592;SDS011;6867;50.998;4.250;2022-09-27T03:26:50;3.70;;;1.57;;
13592;SDS011;6867;50.998;4.250;2022-09-27T03:29:17;6.97;;;2.07;;
13592;SDS011;6867;50.998;4.250;2022-09-27T03:31:43;2.50;;;1.77;;
13592;SDS011;6867;50.998;4.250;2022-09-27T03:34:10;3.43;;;1.63;;
13592;SDS011;6867;50.998;4.250;2022-09-27T03:36:39;4.33;;;2.17;;
13592;SDS011;6867;50.998;4.250;2022-09-27T03:39:05;2.20;;;1.47;;
13592;SDS011;6867;50.998;4.250;2022-09-27T03:41:32;5.60;;;1.67;;
13592;SDS011;6867;50.998;4.250;2022-09-27T03:43:59;3.73;;;1.77;;
13592;SDS011;6867;50.998;4.250;2022-09-27T03:46:26;4.73;;;1.77;;
13592;SDS011;6867;50.998;4.250;2022-09-27T03:48:53;2.17;;;1.47;;
13592;SDS011;6867;50.998;4.250;2022-09-27T03:51:20;3.67;;;1.43;;
13592;SDS011;6867;50.998;4.250;2022-09-27T03:53:48;3.30;;;1.57;;
13592;SDS011;6867;50.998;4.250;2022-09-27T03:56:15;3.47;;;1.50;;
13592;SDS011;6867;50.998;4.250;2022-09-27T03:58:45;3.07;;;1.87;;
13592;SDS011;6867;50.998;4.250;2022-09-27T04:01:12;5.23;;;1.90;;
13592;SDS011;6867;50.998;4.250;2022-09-27T04:03:39;3.83;;;2.30;;
13592;SDS011;6867;50.998;4.250;2022-09-27T04:06:06;2.77;;;1.70;;
13592;SDS011;6867;50.998;4.250;2022-09-27T04:08:33;5.10;;;2.30;;
13592;SDS011;6867;50.998;4.250;2022-09-27T04:11:01;5.00;;;1.77;;
13592;SDS011;6867;50.998;4.250;2022-09-27T04:13:28;5.13;;;2.20;;
13592;SDS011;6867;50.998;4.250;2022-09-27T04:15:55;4.13;;;2.40;;
13592;SDS011;6867;50.998;4.250;2022-09-27T04:18:21;3.53;;;2.03;;
13592;SDS011;6867;50.998;4.250;2022-09-27T04:20:48;2.90;;;1.60;;
13592;SDS011;6867;50.998;4.250;2022-09-27T04:23:16;2.47;;;1.50;;
13592;SDS011;6867;50.998;4.250;2022-09-27T04:25:43;3.30;;;1.37;;
13592;SDS011;6867;50.998;4.250;2022-09-27T04:28:11;4.93;;;1.60;;
13592;SDS011;6867;50.998;4.250;2022-09-27T04:30:38;3.37;;;1.53;;
13592;SDS011;6867;50.998;4.250;2022-09-27T04:33:05;2.20;;;1.57;;
13592;SDS011;6867;50.998;4.250;2022-09-27T04:35:32;4.67;;;1.53;;
13592;SDS011;6867;50.998;4.250;2022-09-27T04:38:16;5.00;;;1.53;;
13592;SDS011;6867;50.998;4.250;2022-09-27T04:40:44;2.63;;;1.83;;
13592;SDS011;6867;50.998;4.250;2022-09-27T04:43:14;7.27;;;2.20;;
13592;SDS011;6867;50.998;4.250;2022-09-27T04:45:41;8.37;;;2.63;;
13592;SDS011;6867;50.998;4.250;2022-09-27T04:48:09;5.10;;;2.60;;
13592;SDS011;6867;50.998;4.250;2022-09-27T04:50:36;6.53;;;2.37;;
13592;SDS011;6867;50.998;4.250;2022-09-27T04:53:03;6.63;;;3.13;;
13592;SDS011;6867;50.998;4.250;2022-09-27T04:55:31;7.57;;;3.90;;
13592;SDS011;6867;50.998;4.250;2022-09-27T04:57:57;9.33;;;3.80;;
13592;SDS011;6867;50.998;4.250;2022-09-27T05:00:27;7.10;;;3.43;;
13592;SDS011;6867;50.998;4.250;2022-09-27T05:02:54;7.53;;;4.30;;
13592;SDS011;6867;50.998;4.250;2022-09-27T05:05:20;9.90;;;4.40;;
13592;SDS011;6867;50.998;4.250;2022-09-27T05:07:47;8.90;;;4.23;;
13592;SDS011;6867;50.998;4.250;2022-09-27T05:10:13;7.27;;;4.50;;
13592;SDS011;6867;50.998;4.250;2022-09-27T05:12:41;6.80;;;4.53;;
13592;SDS011;6867;50.998;4.250;2022-09-27T05:15:08;8.70;;;4.80;;
13592;SDS011;6867;50.998;4.250;2022-09-27T05:17:36;8.37;;;4.87;;
13592;SDS011;6867;50.998;4.250;2022-09-27T05:20:03;8.97;;;4.37;;
13592;SDS011;6867;50.998;4.250;2022-09-27T05:22:30;5.90;;;3.97;;
13592;SDS011;6867;50.998;4.250;2022-09-27T05:24:57;6.83;;;3.87;;
13592;SDS011;6867;50.998;4.250;2022-09-27T05:27:24;6.83;;;4.20;;
13592;SDS011;6867;50.998;4.250;2022-09-27T05:29:50;5.77;;;3.93;;
13592;SDS011;6867;50.998;4.250;2022-09-27T05:32:17;6.77;;;3.57;;
13592;SDS011;6867;50.998;4.250;2022-09-27T05:34:45;8.33;;;3.93;;
13592;SDS011;6867;50.998;4.250;2022-09-27T05:37:12;7.00;;;3.53;;
13592;SDS011;6867;50.998;4.250;2022-09-27T05:39:38;5.23;;;3.13;;
13592;SDS011;6867;50.998;4.250;2022-09-27T05:42:05;5.07;;;3.60;;
13592;SDS011;6867;50.998;4.250;2022-09-27T05:44:34;8.20;;;3.40;;
13592;SDS011;6867;50.998;4.250;2022-09-27T05:47:01;4.47;;;3.40;;
13592;SDS011;6867;50.998;4.250;2022-09-27T05:49:28;3.57;;;3.03;;
13592;SDS011;6867;50.998;4.250;2022-09-27T05:51:56;5.17;;;3.07;;
13592;SDS011;6867;50.998;4.250;2022-09-27T05:54:23;6.77;;;3.10;;
13592;SDS011;6867;50.998;4.250;2022-09-27T05:56:52;6.77;;;3.50;;
13592;SDS011;6867;50.998;4.250;2022-09-27T05:59:22;8.10;;;3.17;;
13592;SDS011;6867;50.998;4.250;2022-09-27T06:01:49;7.03;;;3.27;;
13592;SDS011;6867;50.998;4.250;2022-09-27T06:04:16;9.20;;;3.30;;
13592;SDS011;6867;50.998;4.250;2022-09-27T06:06:43;4.13;;;3.13;;
13592;SDS011;6867;50.998;4.250;2022-09-27T06:09:11;3.37;;;3.07;;
13592;SDS011;6867;50.998;4.250;2022-09-27T06:11:39;6.03;;;3.47;;
13592;SDS011;6867;50.998;4.250;2022-09-27T06:14:06;2.90;;;2.50;;
13592;SDS011;6867;50.998;4.250;2022-09-27T06:16:33;3.73;;;2.87;;
13592;SDS011;6867;50.998;4.250;2022-09-27T06:19:01;6.93;;;3.37;;
13592;SDS011;6867;50.998;4.250;2022-09-27T06:21:29;4.57;;;2.93;;
13592;SDS011;6867;50.998;4.250;2022-09-27T06:23:56;6.43;;;3.43;;
13592;SDS011;6867;50.998;4.250;2022-09-27T06:26:25;3.27;;;2.70;;
13592;SDS011;6867;50.998;4.250;2022-09-27T06:28:52;3.37;;;2.80;;
13592;SDS011;6867;50.998;4.250;2022-09-27T06:31:18;7.13;;;2.90;;
13592;SDS011;6867;50.998;4.250;2022-09-27T06:33:45;5.63;;;2.90;;
13592;SDS011;6867;50.998;4.250;2022-09-27T06:36:13;3.47;;;2.83;;
13592;SDS011;6867;50.998;4.250;2022-09-27T06:38:40;4.57;;;3.27;;
13592;SDS011;6867;50.998;4.250;2022-09-27T06:41:07;6.00;;;3.43;;
13592;SDS011;6867;50.998;4.250;2022-09-27T06:43:35;3.57;;;2.73;;
13592;SDS011;6867;50.998;4.250;2022-09-27T06:46:02;5.50;;;2.80;;
13592;SDS011;6867;50.998;4.250;2022-09-27T06:48:30;5.83;;;3.20;;
13592;SDS011;6867;50.998;4.250;2022-09-27T06:50:57;4.90;;;3.63;;
13592;SDS011;6867;50.998;4.250;2022-09-27T06:53:24;6.20;;;3.63;;
13592;SDS011;6867;50.998;4.250;2022-09-27T06:55:51;5.37;;;3.43;;
13592;SDS011;6867;50.998;4.250;2022-09-27T06:58:20;7.07;;;3.33;;
13592;SDS011;6867;50.998;4.250;2022-09-27T07:01:05;6.50;;;4.03;;
13592;SDS011;6867;50.998;4.250;2022-09-27T07:03:32;10.10;;;4.17;;
13592;SDS011;6867;50.998;4.250;2022-09-27T07:06:02;6.37;;;4.37;;
13592;SDS011;6867;50.998;4.250;2022-09-27T07:08:30;6.67;;;4.20;;
13592;SDS011;6867;50.998;4.250;2022-09-27T07:11:00;8.67;;;4.20;;
13592;SDS011;6867;50.998;4.250;2022-09-27T07:13:28;8.23;;;4.37;;
13592;SDS011;6867;50.998;4.250;2022-09-27T07:15:58;9.87;;;4.50;;
13592;SDS011;6867;50.998;4.250;2022-09-27T07:18:27;8.33;;;5.20;;
13592;SDS011;6867;50.998;4.250;2022-09-27T07:20:53;6.63;;;4.03;;
13592;SDS011;6867;50.998;4.250;2022-09-27T07:23:20;9.70;;;6.23;;
13592;SDS011;6867;50.998;4.250;2022-09-27T07:25:47;8.73;;;4.47;;
13592;SDS011;6867;50.998;4.250;2022-09-27T07:28:15;5.70;;;4.57;;
13592;SDS011;6867;50.998;4.250;2022-09-27T07:30:43;9.23;;;4.73;;
13592;SDS011;6867;50.998;4.250;2022-09-27T07:33:10;4.93;;;4.40;;
13592;SDS011;6867;50.998;4.250;2022-09-27T07:35:39;4.37;;;3.60;;
13592;SDS011;6867;50.998;4.250;2022-09-27T07:38:08;7.53;;;3.80;;
13592;SDS011;6867;50.998;4.250;2022-09-27T07:40:37;6.70;;;4.40;;
13592;SDS011;6867;50.998;4.250;2022-09-27T07:43:04;5.53;;;4.50;;
13592;SDS011;6867;50.998;4.250;2022-09-27T07:45:32;5.63;;;4.30;;
13592;SDS011;6867;50.998;4.250;2022-09-27T07:47:59;4.57;;;3.63;;
13592;SDS011;6867;50.998;4.250;2022-09-27T07:50:25;7.20;;;4.47;;
13592;SDS011;6867;50.998;4.250;2022-09-27T07:52:54;4.87;;;3.73;;
13592;SDS011;6867;50.998;4.250;2022-09-27T07:55:20;5.93;;;3.17;;
13592;SDS011;6867;50.998;4.250;2022-09-27T07:57:48;4.63;;;3.50;;
13592;SDS011;6867;50.998;4.250;2022-09-27T08:00:16;5.27;;;2.93;;
13592;SDS011;6867;50.998;4.250;2022-09-27T08:02:44;3.43;;;2.67;;
13592;SDS011;6867;50.998;4.250;2022-09-27T08:05:11;4.53;;;2.47;;
13592;SDS011;6867;50.998;4.250;2022-09-27T08:07:39;3.33;;;2.47;;
13592;SDS011;6867;50.998;4.250;2022-09-27T08:10:07;7.03;;;3.00;;
13592;SDS011;6867;50.998;4.250;2022-09-27T08:12:34;5.03;;;2.77;;
13592;SDS011;6867;50.998;4.250;2022-09-27T08:15:02;5.20;;;2.53;;
13592;SDS011;6867;50.998;4.250;2022-09-27T08:17:29;3.20;;;2.33;;
13592;SDS011;6867;50.998;4.250;2022-09-27T08:19:57;6.23;;;2.93;;
13592;SDS011;6867;50.998;4.250;2022-09-27T08:22:26;4.97;;;2.70;;
13592;SDS011;6867;50.998;4.250;2022-09-27T08:24:53;5.83;;;3.03;;
13592;SDS011;6867;50.998;4.250;2022-09-27T08:27:21;3.30;;;3.00;;
13592;SDS011;6867;50.998;4.250;2022-09-27T08:29:47;4.33;;;3.03;;
13592;SDS011;6867;50.998;4.250;2022-09-27T08:32:14;5.07;;;3.47;;
13592;SDS011;6867;50.998;4.250;2022-09-27T08:34:43;5.60;;;3.03;;
13592;SDS011;6867;50.998;4.250;2022-09-27T08:37:09;5.40;;;2.90;;
13592;SDS011;6867;50.998;4.250;2022-09-27T08:39:36;4.77;;;2.53;;
13592;SDS011;6867;50.998;4.250;2022-09-27T08:42:05;3.93;;;2.77;;
13592;SDS011;6867;50.998;4.250;2022-09-27T08:44:46;4.17;;;2.80;;
13592;SDS011;6867;50.998;4.250;2022-09-27T08:47:21;5.63;;;2.73;;
13592;SDS011;6867;50.998;4.250;2022-09-27T08:49:51;8.07;;;3.70;;
13592;SDS011;6867;50.998;4.250;2022-09-27T08:52:21;4.60;;;2.87;;
13592;SDS011;6867;50.998;4.250;2022-09-27T08:54:53;7.27;;;2.37;;
13592;SDS011;6867;50.998;4.250;2022-09-27T08:57:21;3.23;;;2.87;;
13592;SDS011;6867;50.998;4.250;2022-09-27T08:59:52;3.70;;;1.90;;
13592;SDS011;6867;50.998;4.250;2022-09-27T09:02:22;3.37;;;2.40;;
13592;SDS011;6867;50.998;4.250;2022-09-27T09:04:51;2.80;;;2.27;;
13592;SDS011;6867;50.998;4.250;2022-09-27T09:10:21;2.60;;;2.13;;
13592;SDS011;6867;50.998;4.250;2022-09-27T09:13:16;4.37;;;1.80;;
13592;SDS011;6867;50.998;4.250;2022-09-27T09:15:54;4.03;;;1.97;;
13592;SDS011;6867;50.998;4.250;2022-09-27T09:18:29;6.07;;;1.97;;
13592;SDS011;6867;50.998;4.250;2022-09-27T09:21:05;6.80;;;2.67;;
13592;SDS011;6867;50.998;4.250;2022-09-27T09:23:44;3.30;;;1.90;;
13592;SDS011;6867;50.998;4.250;2022-09-27T09:26:28;3.03;;;1.70;;
13592;SDS011;6867;50.998;4.250;2022-09-27T09:29:03;6.87;;;1.97;;
13592;SDS011;6867;50.998;4.250;2022-09-27T09:31:44;3.43;;;1.77;;
13592;SDS011;6867;50.998;4.250;2022-09-27T09:34:17;2.10;;;1.60;;
13592;SDS011;6867;50.998;4.250;2022-09-27T09:36:47;2.87;;;1.73;;
13592;SDS011;6867;50.998;4.250;2022-09-27T09:39:18;2.95;;;1.70;;
13592;SDS011;6867;50.998;4.250;2022-09-27T09:41:55;5.60;;;1.57;;
13592;SDS011;6867;50.998;4.250;2022-09-27T09:44:33;4.07;;;1.50;;
13592;SDS011;6867;50.998;4.250;2022-09-27T09:47:11;1.97;;;1.43;;
13592;SDS011;6867;50.998;4.250;2022-09-27T09:49:45;5.63;;;1.77;;
13592;SDS011;6867;50.998;4.250;2022-09-27T09:52:17;4.40;;;1.33;;
13592;SDS011;6867;50.998;4.250;2022-09-27T09:54:48;3.47;;;1.55;;
13592;SDS011;6867;50.998;4.250;2022-09-27T09:57:21;7.47;;;2.00;;
13592;SDS011;6867;50.998;4.250;2022-09-27T09:59:51;3.58;;;1.60;;
13592;SDS011;6867;50.998;4.250;2022-09-27T10:02:27;2.33;;;1.45;;
13592;SDS011;6867;50.998;4.250;2022-09-27T10:04:57;7.07;;;1.90;;
13592;SDS011;6867;50.998;4.250;2022-09-27T10:07:24;6.22;;;1.55;;
13592;SDS011;6867;50.998;4.250;2022-09-27T10:09:54;7.07;;;1.85;;
13592;SDS011;6867;50.998;4.250;2022-09-27T10:12:24;5.57;;;1.70;;
13592;SDS011;6867;50.998;4.250;2022-09-27T10:14:52;5.25;;;1.80;;
13592;SDS011;6867;50.998;4.250;2022-09-27T10:17:23;5.82;;;1.50;;
13592;SDS011;6867;50.998;4.250;2022-09-27T10:19:54;4.53;;;1.55;;
13592;SDS011;6867;50.998;4.250;2022-09-27T10:22:25;4.63;;;1.75;;
13592;SDS011;6867;50.998;4.250;2022-09-27T10:24:57;6.40;;;1.52;;
13592;SDS011;6867;50.998;4.250;2022-09-27T10:27:26;3.03;;;1.50;;
13592;SDS011;6867;50.998;4.250;2022-09-27T10:29:57;5.60;;;1.77;;
13592;SDS011;6867;50.998;4.250;2022-09-27T10:32:27;4.75;;;1.80;;
13592;SDS011;6867;50.998;4.250;2022-09-27T10:37:44;6.65;;;1.70;;
13592;SDS011;6867;50.998;4.250;2022-09-27T10:40:25;5.45;;;1.70;;
13592;SDS011;6867;50.998;4.250;2022-09-27T10:42:54;2.47;;;1.67;;
13592;SDS011;6867;50.998;4.250;2022-09-27T10:45:26;2.77;;;1.37;;
13592;SDS011;6867;50.998;4.250;2022-09-27T10:47:55;5.13;;;1.67;;
13592;SDS011;6867;50.998;4.250;2022-09-27T10:50:25;6.73;;;1.40;;
13592;SDS011;6867;50.998;4.250;2022-09-27T10:53:00;4.97;;;1.83;;
13592;SDS011;6867;50.998;4.250;2022-09-27T10:55:28;6.57;;;1.60;;
13592;SDS011;6867;50.998;4.250;2022-09-27T10:57:58;4.97;;;1.90;;
13592;SDS011;6867;50.998;4.250;2022-09-27T11:00:28;5.60;;;2.13;;
13592;SDS011;6867;50.998;4.250;2022-09-27T11:02:58;5.53;;;2.00;;
13592;SDS011;6867;50.998;4.250;2022-09-27T11:05:31;2.07;;;1.80;;
13592;SDS011;6867;50.998;4.250;2022-09-27T11:08:00;3.47;;;1.57;;
13592;SDS011;6867;50.998;4.250;2022-09-27T11:10:29;7.30;;;1.73;;
13592;SDS011;6867;50.998;4.250;2022-09-27T11:13:07;4.20;;;1.30;;
13592;SDS011;6867;50.998;4.250;2022-09-27T11:15:38;4.70;;;1.40;;
13592;SDS011;6867;50.998;4.250;2022-09-27T11:18:19;3.43;;;1.10;;
13592;SDS011;6867;50.998;4.250;2022-09-27T11:20:57;2.03;;;1.00;;
13592;SDS011;6867;50.998;4.250;2022-09-27T11:23:36;1.27;;;0.80;;
13592;SDS011;6867;50.998;4.250;2022-09-27T11:26:26;5.13;;;1.23;;
13592;SDS011;6867;50.998;4.250;2022-09-27T11:29:06;3.33;;;1.10;;
13592;SDS011;6867;50.998;4.250;2022-09-27T11:31:48;1.47;;;0.80;;
13592;SDS011;6867;50.998;4.250;2022-09-27T11:34:32;1.87;;;1.00;;
13592;SDS011;6867;50.998;4.250;2022-09-27T11:37:15;4.03;;;0.90;;
13592;SDS011;6867;50.998;4.250;2022-09-27T11:40:02;4.67;;;1.37;;
13592;SDS011;6867;50.998;4.250;2022-09-27T11:42:42;3.23;;;0.83;;
13592;SDS011;6867;50.998;4.250;2022-09-27T11:45:36;1.93;;;0.97;;
13592;SDS011;6867;50.998;4.250;2022-09-27T11:48:12;1.47;;;0.83;;
13592;SDS011;6867;50.998;4.250;2022-09-27T11:50:57;1.47;;;0.80;;
13592;SDS011;6867;50.998;4.250;2022-09-27T11:53:35;3.50;;;1.17;;
13592;SDS011;6867;50.998;4.250;2022-09-27T11:56:15;2.77;;;1.00;;
13592;SDS011;6867;50.998;4.250;2022-09-27T11:58:52;1.90;;;0.90;;
13592;SDS011;6867;50.998;4.250;2022-09-27T12:01:32;2.80;;;1.27;;
13592;SDS011;6867;50.998;4.250;2022-09-27T12:04:15;1.70;;;1.10;;
13592;SDS011;6867;50.998;4.250;2022-09-27T12:06:57;1.13;;;0.90;;
13592;SDS011;6867;50.998;4.250;2022-09-27T12:09:32;2.60;;;0.50;;
13592;SDS011;6867;50.998;4.250;2022-09-27T12:12:02;3.13;;;1.90;;
13592;SDS011;6867;50.998;4.250;2022-09-27T12:14:33;0.90;;;0.70;;
13592;SDS011;6867;50.998;4.250;2022-09-27T12:17:04;2.23;;;0.80;;
13592;SDS011;6867;50.998;4.250;2022-09-27T12:19:37;1.87;;;0.70;;
13592;SDS011;6867;50.998;4.250;2022-09-27T12:22:10;2.60;;;0.80;;
13592;SDS011;6867;50.998;4.250;2022-09-27T12:24:41;3.53;;;0.80;;
13592;SDS011;6867;50.998;4.250;2022-09-27T12:27:11;2.87;;;1.00;;
13592;SDS011;6867;50.998;4.250;2022-09-27T12:29:40;2.00;;;0.73;;
13592;SDS011;6867;50.998;4.250;2022-09-27T12:32:10;6.50;;;1.10;;
13592;SDS011;6867;50.998;4.250;2022-09-27T12:34:43;1.00;;;0.70;;
13592;SDS011;6867;50.998;4.250;2022-09-27T12:37:19;1.83;;;0.73;;
13592;SDS011;6867;50.998;4.250;2022-09-27T12:39:50;4.73;;;0.90;;
13592;SDS011;6867;50.998;4.250;2022-09-27T12:42:22;1.40;;;0.70;;
13592;SDS011;6867;50.998;4.250;2022-09-27T12:44:50;3.90;;;1.30;;
13592;SDS011;6867;50.998;4.250;2022-09-27T12:47:22;3.03;;;0.70;;
13592;SDS011;6867;50.998;4.250;2022-09-27T12:50:01;3.80;;;0.90;;
13592;SDS011;6867;50.998;4.250;2022-09-27T12:52:36;1.93;;;0.97;;
13592;SDS011;6867;50.998;4.250;2022-09-27T12:58:16;5.43;;;1.27;;
13592;SDS011;6867;50.998;4.250;2022-09-27T13:00:56;1.58;;;1.05;;
13592;SDS011;6867;50.998;4.250;2022-09-27T13:03:39;4.93;;;1.50;;
13592;SDS011;6867;50.998;4.250;2022-09-27T13:06:19;2.27;;;1.00;;
13592;SDS011;6867;50.998;4.250;2022-09-27T13:12:07;2.47;;;1.40;;
13592;SDS011;6867;50.998;4.250;2022-09-27T13:14:38;4.97;;;1.00;;
13592;SDS011;6867;50.998;4.250;2022-09-27T13:23:04;6.90;;;1.13;;
13592;SDS011;6867;50.998;4.250;2022-09-27T13:25:55;3.73;;;1.50;;
13592;SDS011;6867;50.998;4.250;2022-09-27T13:28:31;3.93;;;0.70;;
13592;SDS011;6867;50.998;4.250;2022-09-27T13:31:00;4.00;;;1.00;;
13592;SDS011;6867;50.998;4.250;2022-09-27T13:33:31;1.70;;;0.90;;
13592;SDS011;6867;50.998;4.250;2022-09-27T13:36:06;2.17;;;0.87;;
13592;SDS011;6867;50.998;4.250;2022-09-27T13:38:59;4.07;;;1.05;;
13592;SDS011;6867;50.998;4.250;2022-09-27T13:41:33;1.73;;;0.88;;
13592;SDS011;6867;50.998;4.250;2022-09-27T13:44:19;4.07;;;1.00;;
13592;SDS011;6867;50.998;4.250;2022-09-27T13:46:56;1.60;;;0.80;;
13592;SDS011;6867;50.998;4.250;2022-09-27T13:49:27;4.57;;;0.90;;
13592;SDS011;6867;50.998;4.250;2022-09-27T13:51:59;1.77;;;0.80;;
13592;SDS011;6867;50.998;4.250;2022-09-27T13:54:37;4.43;;;1.48;;
13592;SDS011;6867;50.998;4.250;2022-09-27T14:00:09;3.38;;;1.25;;
13592;SDS011;6867;50.998;4.250;2022-09-27T14:02:41;1.23;;;0.93;;
13592;SDS011;6867;50.998;4.250;2022-09-27T14:05:19;4.55;;;0.98;;
13592;SDS011;6867;50.998;4.250;2022-09-27T14:07:51;5.80;;;1.33;;
13592;SDS011;6867;50.998;4.250;2022-09-27T14:10:18;3.30;;;0.82;;
13592;SDS011;6867;50.998;4.250;2022-09-27T14:12:51;3.60;;;0.85;;
13592;SDS011;6867;50.998;4.250;2022-09-27T14:15:19;4.47;;;0.75;;
13592;SDS011;6867;50.998;4.250;2022-09-27T14:17:49;2.13;;;0.70;;
13592;SDS011;6867;50.998;4.250;2022-09-27T14:23:12;3.45;;;0.63;;
13592;SDS011;6867;50.998;4.250;2022-09-27T14:25:43;2.47;;;0.82;;
13592;SDS011;6867;50.998;4.250;2022-09-27T14:28:24;2.50;;;1.00;;
13592;SDS011;6867;50.998;4.250;2022-09-27T14:31:05;2.63;;;0.98;;
13592;SDS011;6867;50.998;4.250;2022-09-27T14:33:33;5.25;;;1.02;;
13592;SDS011;6867;50.998;4.250;2022-09-27T14:36:01;3.00;;;1.02;;
13592;SDS011;6867;50.998;4.250;2022-09-27T14:38:45;3.42;;;0.82;;
13592;SDS011;6867;50.998;4.250;2022-09-27T14:41:13;2.80;;;1.10;;
13592;SDS011;6867;50.998;4.250;2022-09-27T14:43:42;3.13;;;1.40;;
13592;SDS011;6867;50.998;4.250;2022-09-27T14:46:22;2.45;;;1.10;;
13592;SDS011;6867;50.998;4.250;2022-09-27T14:48:51;4.33;;;1.23;;
13592;SDS011;6867;50.998;4.250;2022-09-27T14:51:19;2.20;;;1.20;;
13592;SDS011;6867;50.998;4.250;2022-09-27T14:53:51;3.40;;;1.73;;
13592;SDS011;6867;50.998;4.250;2022-09-27T14:56:22;2.47;;;1.40;;
13592;SDS011;6867;50.998;4.250;2022-09-27T14:58:54;3.50;;;1.60;;
13592;SDS011;6867;50.998;4.250;2022-09-27T15:01:26;8.13;;;1.30;;
13592;SDS011;6867;50.998;4.250;2022-09-27T15:03:55;3.80;;;1.40;;
13592;SDS011;6867;50.998;4.250;2022-09-27T15:06:29;3.07;;;1.60;;
13592;SDS011;6867;50.998;4.250;2022-09-27T15:08:57;3.53;;;1.70;;
13592;SDS011;6867;50.998;4.250;2022-09-27T15:11:27;2.17;;;1.50;;
13592;SDS011;6867;50.998;4.250;2022-09-27T15:13:57;5.13;;;1.90;;
13592;SDS011;6867;50.998;4.250;2022-09-27T15:16:26;2.13;;;1.67;;
13592;SDS011;6867;50.998;4.250;2022-09-27T15:19:00;2.13;;;1.30;;
13592;SDS011;6867;50.998;4.250;2022-09-27T15:21:32;2.47;;;1.17;;
13592;SDS011;6867;50.998;4.250;2022-09-27T15:23:59;1.47;;;1.00;;
13592;SDS011;6867;50.998;4.250;2022-09-27T15:26:32;4.00;;;1.60;;
13592;SDS011;6867;50.998;4.250;2022-09-27T15:29:03;3.40;;;0.83;;
13592;SDS011;6867;50.998;4.250;2022-09-27T15:31:30;1.07;;;0.80;;
13592;SDS011;6867;50.998;4.250;2022-09-27T15:33:58;2.30;;;1.00;;
13592;SDS011;6867;50.998;4.250;2022-09-27T15:39:16;1.40;;;1.30;;
13592;SDS011;6867;50.998;4.250;2022-09-27T15:42:05;1.77;;;1.37;;
13592;SDS011;6867;50.998;4.250;2022-09-27T15:44:42;1.40;;;1.00;;
13592;SDS011;6867;50.998;4.250;2022-09-27T15:53:03;2.30;;;1.63;;
13592;SDS011;6867;50.998;4.250;2022-09-27T15:55:31;1.33;;;1.10;;
13592;SDS011;6867;50.998;4.250;2022-09-27T15:58:04;2.33;;;1.27;;
13592;SDS011;6867;50.998;4.250;2022-09-27T16:00:33;1.67;;;1.30;;